sensor_id;sensor_type;location;lat;lon;timestamp;P1;durP1;ratioP1;P2;durP2;ratioP2
82920;SDS011;72696;52.372;9.722;2024-02-21T00:00:47;17.73;;;8.95;;
82920;SDS011;72696;52.372;9.722;2024-02-21T00:03:13;17.52;;;9.73;;
82920;SDS011;72696;52.372;9.722;2024-02-21T00:05:38;21.10;;;10.45;;
82920;SDS011;72696;52.372;9.722;2024-02-21T00:08:03;17.42;;;10.13;;
82920;SDS011;72696;52.372;9.722;2024-02-21T00:10:29;22.77;;;9.18;;
82920;SDS011;72696;52.372;9.722;2024-02-21T00:12:56;17.95;;;9.85;;
82920;SDS011;72696;52.372;9.722;2024-02-21T00:15:22;18.77;;;8.85;;
82920;SDS011;72696;52.372;9.722;2024-02-21T00:17:47;18.45;;;9.23;;
82920;SDS011;72696;52.372;9.722;2024-02-21T00:20:13;22.90;;;9.77;;
82920;SDS011;72696;52.372;9.722;2024-02-21T00:22:39;20.55;;;9.07;;
82920;SDS011;72696;52.372;9.722;2024-02-21T00:25:04;17.75;;;9.30;;
82920;SDS011;72696;52.372;9.722;2024-02-21T00:27:30;21.42;;;9.95;;
82920;SDS011;72696;52.372;9.722;2024-02-21T00:29:56;19.00;;;8.95;;
82920;SDS011;72696;52.372;9.722;2024-02-21T00:32:21;20.58;;;9.45;;
82920;SDS011;72696;52.372;9.722;2024-02-21T00:34:46;18.17;;;9.88;;
82920;SDS011;72696;52.372;9.722;2024-02-21T00:37:12;22.98;;;10.00;;
82920;SDS011;72696;52.372;9.722;2024-02-21T00:39:37;18.10;;;9.98;;
82920;SDS011;72696;52.372;9.722;2024-02-21T00:42:03;18.17;;;9.65;;
82920;SDS011;72696;52.372;9.722;2024-02-21T00:44:28;16.48;;;8.88;;
82920;SDS011;72696;52.372;9.722;2024-02-21T00:46:53;19.20;;;9.90;;
82920;SDS011;72696;52.372;9.722;2024-02-21T00:49:19;19.98;;;9.65;;
82920;SDS011;72696;52.372;9.722;2024-02-21T00:51:44;20.67;;;10.02;;
82920;SDS011;72696;52.372;9.722;2024-02-21T00:54:10;21.52;;;10.77;;
82920;SDS011;72696;52.372;9.722;2024-02-21T00:56:35;18.52;;;10.13;;
82920;SDS011;72696;52.372;9.722;2024-02-21T00:59:00;24.55;;;10.18;;
82920;SDS011;72696;52.372;9.722;2024-02-21T01:01:26;17.17;;;9.60;;
82920;SDS011;72696;52.372;9.722;2024-02-21T01:03:51;18.88;;;9.27;;
82920;SDS011;72696;52.372;9.722;2024-02-21T01:06:18;23.90;;;9.93;;
82920;SDS011;72696;52.372;9.722;2024-02-21T01:08:45;19.83;;;9.82;;
82920;SDS011;72696;52.372;9.722;2024-02-21T01:11:11;20.70;;;9.00;;
82920;SDS011;72696;52.372;9.722;2024-02-21T01:13:37;18.45;;;9.77;;
82920;SDS011;72696;52.372;9.722;2024-02-21T01:16:02;22.63;;;10.38;;
82920;SDS011;72696;52.372;9.722;2024-02-21T01:18:28;19.25;;;9.90;;
82920;SDS011;72696;52.372;9.722;2024-02-21T01:20:53;23.90;;;11.35;;
82920;SDS011;72696;52.372;9.722;2024-02-21T01:23:18;20.30;;;10.13;;
82920;SDS011;72696;52.372;9.722;2024-02-21T01:25:44;21.55;;;10.73;;
82920;SDS011;72696;52.372;9.722;2024-02-21T01:28:09;24.55;;;10.25;;
82920;SDS011;72696;52.372;9.722;2024-02-21T01:30:35;19.98;;;10.75;;
82920;SDS011;72696;52.372;9.722;2024-02-21T01:33:00;18.67;;;9.77;;
82920;SDS011;72696;52.372;9.722;2024-02-21T01:35:25;23.40;;;11.45;;
82920;SDS011;72696;52.372;9.722;2024-02-21T01:37:51;18.60;;;11.23;;
82920;SDS011;72696;52.372;9.722;2024-02-21T01:40:17;20.50;;;9.65;;
82920;SDS011;72696;52.372;9.722;2024-02-21T01:42:42;22.58;;;11.15;;
82920;SDS011;72696;52.372;9.722;2024-02-21T01:45:08;18.33;;;10.18;;
82920;SDS011;72696;52.372;9.722;2024-02-21T01:47:34;22.30;;;9.95;;
82920;SDS011;72696;52.372;9.722;2024-02-21T01:50:00;25.30;;;10.73;;
82920;SDS011;72696;52.372;9.722;2024-02-21T01:52:27;17.33;;;9.93;;
82920;SDS011;72696;52.372;9.722;2024-02-21T01:54:53;19.38;;;9.77;;
82920;SDS011;72696;52.372;9.722;2024-02-21T01:57:18;19.55;;;10.60;;
82920;SDS011;72696;52.372;9.722;2024-02-21T01:59:44;18.75;;;9.32;;
82920;SDS011;72696;52.372;9.722;2024-02-21T02:02:09;18.30;;;10.18;;
82920;SDS011;72696;52.372;9.722;2024-02-21T02:04:35;20.88;;;10.52;;
82920;SDS011;72696;52.372;9.722;2024-02-21T02:07:02;19.20;;;10.18;;
82920;SDS011;72696;52.372;9.722;2024-02-21T02:09:30;20.67;;;9.77;;
82920;SDS011;72696;52.372;9.722;2024-02-21T02:11:55;18.52;;;10.70;;
82920;SDS011;72696;52.372;9.722;2024-02-21T02:14:20;17.45;;;9.85;;
82920;SDS011;72696;52.372;9.722;2024-02-21T02:16:46;19.83;;;10.07;;
82920;SDS011;72696;52.372;9.722;2024-02-21T02:19:14;25.92;;;10.70;;
82920;SDS011;72696;52.372;9.722;2024-02-21T02:21:42;21.45;;;10.63;;
82920;SDS011;72696;52.372;9.722;2024-02-21T02:24:11;16.67;;;9.60;;
82920;SDS011;72696;52.372;9.722;2024-02-21T02:26:37;19.30;;;10.35;;
82920;SDS011;72696;52.372;9.722;2024-02-21T02:29:02;17.60;;;10.82;;
82920;SDS011;72696;52.372;9.722;2024-02-21T02:31:27;18.58;;;9.98;;
82920;SDS011;72696;52.372;9.722;2024-02-21T02:33:53;20.80;;;10.65;;
82920;SDS011;72696;52.372;9.722;2024-02-21T02:36:18;18.50;;;10.95;;
82920;SDS011;72696;52.372;9.722;2024-02-21T02:38:43;25.60;;;11.02;;
82920;SDS011;72696;52.372;9.722;2024-02-21T02:41:09;19.23;;;9.75;;
82920;SDS011;72696;52.372;9.722;2024-02-21T02:43:34;21.38;;;11.02;;
82920;SDS011;72696;52.372;9.722;2024-02-21T02:46:01;15.85;;;10.02;;
82920;SDS011;72696;52.372;9.722;2024-02-21T02:48:27;21.15;;;10.57;;
82920;SDS011;72696;52.372;9.722;2024-02-21T02:50:52;18.52;;;10.38;;
82920;SDS011;72696;52.372;9.722;2024-02-21T02:53:17;20.38;;;10.57;;
82920;SDS011;72696;52.372;9.722;2024-02-21T02:55:43;19.52;;;10.85;;
82920;SDS011;72696;52.372;9.722;2024-02-21T02:58:08;21.40;;;10.95;;
82920;SDS011;72696;52.372;9.722;2024-02-21T03:00:33;21.60;;;11.15;;
82920;SDS011;72696;52.372;9.722;2024-02-21T03:03:01;18.73;;;10.90;;
82920;SDS011;72696;52.372;9.722;2024-02-21T03:05:28;19.85;;;10.45;;
82920;SDS011;72696;52.372;9.722;2024-02-21T03:07:54;22.42;;;10.93;;
82920;SDS011;72696;52.372;9.722;2024-02-21T03:10:20;18.52;;;10.20;;
82920;SDS011;72696;52.372;9.722;2024-02-21T03:12:46;20.98;;;10.55;;
82920;SDS011;72696;52.372;9.722;2024-02-21T03:15:11;18.02;;;10.25;;
82920;SDS011;72696;52.372;9.722;2024-02-21T03:17:37;21.23;;;10.63;;
82920;SDS011;72696;52.372;9.722;2024-02-21T03:20:02;18.90;;;10.63;;
82920;SDS011;72696;52.372;9.722;2024-02-21T03:22:33;25.35;;;10.45;;
82920;SDS011;72696;52.372;9.722;2024-02-21T03:24:59;17.00;;;9.43;;
82920;SDS011;72696;52.372;9.722;2024-02-21T03:27:24;20.83;;;10.45;;
82920;SDS011;72696;52.372;9.722;2024-02-21T03:29:49;21.30;;;10.32;;
82920;SDS011;72696;52.372;9.722;2024-02-21T03:32:15;18.52;;;10.25;;
82920;SDS011;72696;52.372;9.722;2024-02-21T03:34:40;18.70;;;10.30;;
82920;SDS011;72696;52.372;9.722;2024-02-21T03:37:05;19.58;;;9.38;;
82920;SDS011;72696;52.372;9.722;2024-02-21T03:39:31;18.33;;;10.20;;
82920;SDS011;72696;52.372;9.722;2024-02-21T03:41:57;21.45;;;10.45;;
82920;SDS011;72696;52.372;9.722;2024-02-21T03:44:23;16.92;;;10.02;;
82920;SDS011;72696;52.372;9.722;2024-02-21T03:46:48;17.85;;;10.65;;
82920;SDS011;72696;52.372;9.722;2024-02-21T03:49:13;19.75;;;9.93;;
82920;SDS011;72696;52.372;9.722;2024-02-21T03:51:39;16.65;;;9.18;;
82920;SDS011;72696;52.372;9.722;2024-02-21T03:54:04;20.98;;;10.10;;
82920;SDS011;72696;52.372;9.722;2024-02-21T03:56:29;19.92;;;10.85;;
82920;SDS011;72696;52.372;9.722;2024-02-21T03:58:55;23.20;;;10.93;;
82920;SDS011;72696;52.372;9.722;2024-02-21T04:01:20;18.73;;;10.52;;
82920;SDS011;72696;52.372;9.722;2024-02-21T04:03:46;20.00;;;9.73;;
82920;SDS011;72696;52.372;9.722;2024-02-21T04:06:11;18.75;;;9.63;;
82920;SDS011;72696;52.372;9.722;2024-02-21T04:08:37;20.90;;;10.65;;
82920;SDS011;72696;52.372;9.722;2024-02-21T04:11:02;21.13;;;9.73;;
82920;SDS011;72696;52.372;9.722;2024-02-21T04:13:28;20.13;;;9.75;;
82920;SDS011;72696;52.372;9.722;2024-02-21T04:15:53;16.98;;;9.23;;
82920;SDS011;72696;52.372;9.722;2024-02-21T04:18:18;21.02;;;9.63;;
82920;SDS011;72696;52.372;9.722;2024-02-21T04:20:44;16.75;;;9.40;;
82920;SDS011;72696;52.372;9.722;2024-02-21T04:23:09;17.73;;;9.98;;
82920;SDS011;72696;52.372;9.722;2024-02-21T04:25:35;18.25;;;9.48;;
82920;SDS011;72696;52.372;9.722;2024-02-21T04:28:01;18.55;;;9.25;;
82920;SDS011;72696;52.372;9.722;2024-02-21T04:30:26;19.33;;;9.73;;
82920;SDS011;72696;52.372;9.722;2024-02-21T04:32:51;18.70;;;9.73;;
82920;SDS011;72696;52.372;9.722;2024-02-21T04:35:17;15.88;;;9.90;;
82920;SDS011;72696;52.372;9.722;2024-02-21T04:37:42;17.02;;;9.93;;
82920;SDS011;72696;52.372;9.722;2024-02-21T04:40:07;22.70;;;11.07;;
82920;SDS011;72696;52.372;9.722;2024-02-21T04:42:34;23.98;;;10.07;;
82920;SDS011;72696;52.372;9.722;2024-02-21T04:44:59;24.02;;;10.50;;
82920;SDS011;72696;52.372;9.722;2024-02-21T04:47:24;17.05;;;10.13;;
82920;SDS011;72696;52.372;9.722;2024-02-21T04:49:50;20.90;;;10.88;;
82920;SDS011;72696;52.372;9.722;2024-02-21T04:52:15;20.38;;;11.35;;
82920;SDS011;72696;52.372;9.722;2024-02-21T04:54:40;21.13;;;11.18;;
82920;SDS011;72696;52.372;9.722;2024-02-21T04:57:06;18.65;;;10.48;;
82920;SDS011;72696;52.372;9.722;2024-02-21T04:59:31;20.95;;;11.02;;
82920;SDS011;72696;52.372;9.722;2024-02-21T05:01:57;20.65;;;10.90;;
82920;SDS011;72696;52.372;9.722;2024-02-21T05:04:23;20.83;;;11.20;;
82920;SDS011;72696;52.372;9.722;2024-02-21T05:06:49;25.58;;;11.50;;
82920;SDS011;72696;52.372;9.722;2024-02-21T05:09:14;17.95;;;10.88;;
82920;SDS011;72696;52.372;9.722;2024-02-21T05:11:40;21.38;;;10.10;;
82920;SDS011;72696;52.372;9.722;2024-02-21T05:14:05;19.95;;;10.32;;
82920;SDS011;72696;52.372;9.722;2024-02-21T05:16:31;21.10;;;11.05;;
82920;SDS011;72696;52.372;9.722;2024-02-21T05:18:56;21.15;;;10.73;;
82920;SDS011;72696;52.372;9.722;2024-02-21T05:21:25;21.52;;;10.73;;
82920;SDS011;72696;52.372;9.722;2024-02-21T05:23:51;16.75;;;11.00;;
82920;SDS011;72696;52.372;9.722;2024-02-21T05:26:23;19.95;;;11.80;;
82920;SDS011;72696;52.372;9.722;2024-02-21T05:28:49;18.42;;;10.45;;
82920;SDS011;72696;52.372;9.722;2024-02-21T05:31:15;19.30;;;10.50;;
82920;SDS011;72696;52.372;9.722;2024-02-21T05:33:41;24.77;;;11.52;;
82920;SDS011;72696;52.372;9.722;2024-02-21T05:36:07;19.83;;;10.48;;
82920;SDS011;72696;52.372;9.722;2024-02-21T05:38:32;18.80;;;10.30;;
82920;SDS011;72696;52.372;9.722;2024-02-21T05:40:58;23.05;;;11.48;;
82920;SDS011;72696;52.372;9.722;2024-02-21T05:43:23;20.98;;;10.15;;
82920;SDS011;72696;52.372;9.722;2024-02-21T05:45:48;21.67;;;10.90;;
82920;SDS011;72696;52.372;9.722;2024-02-21T05:48:19;21.63;;;10.25;;
82920;SDS011;72696;52.372;9.722;2024-02-21T05:50:45;21.25;;;11.77;;
82920;SDS011;72696;52.372;9.722;2024-02-21T05:53:10;20.48;;;9.82;;
82920;SDS011;72696;52.372;9.722;2024-02-21T05:55:36;17.15;;;9.95;;
82920;SDS011;72696;52.372;9.722;2024-02-21T05:58:01;19.92;;;9.65;;
82920;SDS011;72696;52.372;9.722;2024-02-21T06:00:27;16.65;;;9.65;;
82920;SDS011;72696;52.372;9.722;2024-02-21T06:02:53;15.13;;;9.70;;
82920;SDS011;72696;52.372;9.722;2024-02-21T06:05:18;18.88;;;9.65;;
82920;SDS011;72696;52.372;9.722;2024-02-21T06:07:43;20.98;;;10.80;;
82920;SDS011;72696;52.372;9.722;2024-02-21T06:10:09;19.05;;;10.50;;
82920;SDS011;72696;52.372;9.722;2024-02-21T06:12:34;19.05;;;10.35;;
82920;SDS011;72696;52.372;9.722;2024-02-21T06:15:00;23.80;;;11.20;;
82920;SDS011;72696;52.372;9.722;2024-02-21T06:17:25;18.98;;;10.52;;
82920;SDS011;72696;52.372;9.722;2024-02-21T06:19:50;21.50;;;10.05;;
82920;SDS011;72696;52.372;9.722;2024-02-21T06:22:16;15.40;;;10.05;;
82920;SDS011;72696;52.372;9.722;2024-02-21T06:24:41;18.15;;;10.18;;
82920;SDS011;72696;52.372;9.722;2024-02-21T06:27:07;18.27;;;10.25;;
82920;SDS011;72696;52.372;9.722;2024-02-21T06:29:33;20.52;;;10.02;;
82920;SDS011;72696;52.372;9.722;2024-02-21T06:31:58;15.07;;;9.45;;
82920;SDS011;72696;52.372;9.722;2024-02-21T06:34:24;15.85;;;10.07;;
82920;SDS011;72696;52.372;9.722;2024-02-21T06:36:49;18.17;;;10.38;;
82920;SDS011;72696;52.372;9.722;2024-02-21T06:39:15;19.60;;;11.05;;
82920;SDS011;72696;52.372;9.722;2024-02-21T06:41:41;17.83;;;10.40;;
82920;SDS011;72696;52.372;9.722;2024-02-21T06:44:06;19.70;;;10.25;;
82920;SDS011;72696;52.372;9.722;2024-02-21T06:46:31;16.25;;;9.90;;
82920;SDS011;72696;52.372;9.722;2024-02-21T06:49:00;21.40;;;11.15;;
82920;SDS011;72696;52.372;9.722;2024-02-21T06:51:26;17.90;;;9.30;;
82920;SDS011;72696;52.372;9.722;2024-02-21T06:53:52;18.52;;;10.00;;
82920;SDS011;72696;52.372;9.722;2024-02-21T06:56:18;17.80;;;10.38;;
82920;SDS011;72696;52.372;9.722;2024-02-21T06:58:43;16.52;;;9.50;;
82920;SDS011;72696;52.372;9.722;2024-02-21T07:01:08;15.85;;;9.55;;
82920;SDS011;72696;52.372;9.722;2024-02-21T07:03:35;19.08;;;9.82;;
82920;SDS011;72696;52.372;9.722;2024-02-21T07:06:01;19.10;;;10.05;;
82920;SDS011;72696;52.372;9.722;2024-02-21T07:08:26;19.70;;;9.52;;
82920;SDS011;72696;52.372;9.722;2024-02-21T07:10:52;16.58;;;9.10;;
82920;SDS011;72696;52.372;9.722;2024-02-21T07:13:17;14.38;;;8.70;;
82920;SDS011;72696;52.372;9.722;2024-02-21T07:15:42;16.33;;;9.15;;
82920;SDS011;72696;52.372;9.722;2024-02-21T07:18:08;17.42;;;9.40;;
82920;SDS011;72696;52.372;9.722;2024-02-21T07:20:33;21.13;;;9.82;;
82920;SDS011;72696;52.372;9.722;2024-02-21T07:22:59;21.15;;;10.93;;
82920;SDS011;72696;52.372;9.722;2024-02-21T07:25:24;16.63;;;9.75;;
82920;SDS011;72696;52.372;9.722;2024-02-21T07:27:50;16.55;;;8.27;;
82920;SDS011;72696;52.372;9.722;2024-02-21T07:30:15;18.33;;;9.32;;
82920;SDS011;72696;52.372;9.722;2024-02-21T07:32:41;17.38;;;9.15;;
82920;SDS011;72696;52.372;9.722;2024-02-21T07:35:06;16.35;;;9.15;;
82920;SDS011;72696;52.372;9.722;2024-02-21T07:37:36;13.10;;;9.45;;
82920;SDS011;72696;52.372;9.722;2024-02-21T07:40:02;15.82;;;8.82;;
82920;SDS011;72696;52.372;9.722;2024-02-21T07:42:28;14.95;;;8.73;;
82920;SDS011;72696;52.372;9.722;2024-02-21T07:44:54;14.57;;;8.75;;
82920;SDS011;72696;52.372;9.722;2024-02-21T07:47:21;15.10;;;9.15;;
82920;SDS011;72696;52.372;9.722;2024-02-21T07:49:46;14.52;;;8.88;;
82920;SDS011;72696;52.372;9.722;2024-02-21T07:52:13;15.52;;;8.70;;
82920;SDS011;72696;52.372;9.722;2024-02-21T07:54:40;16.17;;;9.52;;
82920;SDS011;72696;52.372;9.722;2024-02-21T07:57:09;15.55;;;8.18;;
82920;SDS011;72696;52.372;9.722;2024-02-21T07:59:34;14.77;;;8.23;;
82920;SDS011;72696;52.372;9.722;2024-02-21T08:02:00;20.77;;;9.57;;
82920;SDS011;72696;52.372;9.722;2024-02-21T08:04:25;12.70;;;8.52;;
82920;SDS011;72696;52.372;9.722;2024-02-21T08:06:54;19.73;;;9.10;;
82920;SDS011;72696;52.372;9.722;2024-02-21T08:09:26;20.23;;;9.27;;
82920;SDS011;72696;52.372;9.722;2024-02-21T08:11:51;15.73;;;8.40;;
82920;SDS011;72696;52.372;9.722;2024-02-21T08:14:17;18.88;;;8.82;;
82920;SDS011;72696;52.372;9.722;2024-02-21T08:16:42;15.55;;;8.13;;
82920;SDS011;72696;52.372;9.722;2024-02-21T08:19:09;13.30;;;8.20;;
82920;SDS011;72696;52.372;9.722;2024-02-21T08:21:35;16.55;;;8.57;;
82920;SDS011;72696;52.372;9.722;2024-02-21T08:24:00;15.55;;;9.07;;
82920;SDS011;72696;52.372;9.722;2024-02-21T08:26:26;17.23;;;9.02;;
82920;SDS011;72696;52.372;9.722;2024-02-21T08:28:55;15.27;;;8.25;;
82920;SDS011;72696;52.372;9.722;2024-02-21T08:31:23;14.50;;;8.07;;
82920;SDS011;72696;52.372;9.722;2024-02-21T08:33:49;16.70;;;7.60;;
82920;SDS011;72696;52.372;9.722;2024-02-21T08:36:18;15.57;;;8.40;;
82920;SDS011;72696;52.372;9.722;2024-02-21T08:38:44;14.48;;;7.90;;
82920;SDS011;72696;52.372;9.722;2024-02-21T08:41:10;14.93;;;7.82;;
82920;SDS011;72696;52.372;9.722;2024-02-21T08:43:36;15.93;;;8.32;;
82920;SDS011;72696;52.372;9.722;2024-02-21T08:46:01;13.43;;;7.85;;
82920;SDS011;72696;52.372;9.722;2024-02-21T08:48:26;13.70;;;7.70;;
82920;SDS011;72696;52.372;9.722;2024-02-21T08:50:52;15.10;;;7.53;;
82920;SDS011;72696;52.372;9.722;2024-02-21T08:53:19;16.95;;;7.13;;
82920;SDS011;72696;52.372;9.722;2024-02-21T08:55:44;12.88;;;7.68;;
82920;SDS011;72696;52.372;9.722;2024-02-21T08:58:10;13.50;;;7.28;;
82920;SDS011;72696;52.372;9.722;2024-02-21T09:00:36;15.55;;;7.30;;
82920;SDS011;72696;52.372;9.722;2024-02-21T09:03:01;16.77;;;7.88;;
82920;SDS011;72696;52.372;9.722;2024-02-21T09:05:27;13.38;;;7.00;;
82920;SDS011;72696;52.372;9.722;2024-02-21T09:07:52;11.10;;;6.82;;
82920;SDS011;72696;52.372;9.722;2024-02-21T09:10:17;12.60;;;6.35;;
82920;SDS011;72696;52.372;9.722;2024-02-21T09:12:43;11.55;;;6.10;;
82920;SDS011;72696;52.372;9.722;2024-02-21T09:15:08;14.57;;;6.78;;
82920;SDS011;72696;52.372;9.722;2024-02-21T09:17:34;13.48;;;5.88;;
82920;SDS011;72696;52.372;9.722;2024-02-21T09:19:59;12.63;;;6.03;;
82920;SDS011;72696;52.372;9.722;2024-02-21T09:22:28;14.13;;;5.68;;
82920;SDS011;72696;52.372;9.722;2024-02-21T09:24:53;9.70;;;5.32;;
82920;SDS011;72696;52.372;9.722;2024-02-21T09:27:19;10.65;;;5.38;;
82920;SDS011;72696;52.372;9.722;2024-02-21T09:29:44;11.73;;;5.88;;
82920;SDS011;72696;52.372;9.722;2024-02-21T09:32:09;11.18;;;5.60;;
82920;SDS011;72696;52.372;9.722;2024-02-21T09:34:35;9.35;;;5.15;;
82920;SDS011;72696;52.372;9.722;2024-02-21T09:37:00;12.95;;;4.93;;
82920;SDS011;72696;52.372;9.722;2024-02-21T09:39:26;8.40;;;5.60;;
82920;SDS011;72696;52.372;9.722;2024-02-21T09:41:53;11.48;;;6.10;;
82920;SDS011;72696;52.372;9.722;2024-02-21T09:44:24;11.85;;;5.22;;
82920;SDS011;72696;52.372;9.722;2024-02-21T09:46:57;8.63;;;4.65;;
82920;SDS011;72696;52.372;9.722;2024-02-21T09:49:32;8.65;;;4.18;;
82920;SDS011;72696;52.372;9.722;2024-02-21T09:52:00;9.13;;;4.60;;
82920;SDS011;72696;52.372;9.722;2024-02-21T09:54:28;10.85;;;5.45;;
82920;SDS011;72696;52.372;9.722;2024-02-21T09:56:55;9.13;;;4.45;;
82920;SDS011;72696;52.372;9.722;2024-02-21T09:59:20;7.03;;;4.50;;
82920;SDS011;72696;52.372;9.722;2024-02-21T10:01:46;7.88;;;4.47;;
82920;SDS011;72696;52.372;9.722;2024-02-21T10:04:15;10.40;;;5.07;;
82920;SDS011;72696;52.372;9.722;2024-02-21T10:06:40;11.88;;;6.28;;
82920;SDS011;72696;52.372;9.722;2024-02-21T10:09:06;9.07;;;4.60;;
82920;SDS011;72696;52.372;9.722;2024-02-21T10:11:32;10.43;;;5.20;;
82920;SDS011;72696;52.372;9.722;2024-02-21T10:14:04;9.13;;;4.93;;
82920;SDS011;72696;52.372;9.722;2024-02-21T10:16:30;7.80;;;4.95;;
82920;SDS011;72696;52.372;9.722;2024-02-21T10:18:56;5.93;;;3.90;;
82920;SDS011;72696;52.372;9.722;2024-02-21T10:21:21;7.20;;;4.05;;
82920;SDS011;72696;52.372;9.722;2024-02-21T10:23:47;7.97;;;4.30;;
82920;SDS011;72696;52.372;9.722;2024-02-21T10:26:17;9.43;;;4.53;;
82920;SDS011;72696;52.372;9.722;2024-02-21T10:28:44;7.57;;;4.10;;
82920;SDS011;72696;52.372;9.722;2024-02-21T10:31:26;7.32;;;4.22;;
82920;SDS011;72696;52.372;9.722;2024-02-21T10:33:59;8.52;;;4.20;;
82920;SDS011;72696;52.372;9.722;2024-02-21T10:36:28;10.32;;;4.05;;
82920;SDS011;72696;52.372;9.722;2024-02-21T10:38:53;8.95;;;4.40;;
82920;SDS011;72696;52.372;9.722;2024-02-21T10:41:20;9.77;;;4.18;;
82920;SDS011;72696;52.372;9.722;2024-02-21T10:43:52;7.30;;;3.80;;
82920;SDS011;72696;52.372;9.722;2024-02-21T10:46:19;8.63;;;3.70;;
82920;SDS011;72696;52.372;9.722;2024-02-21T10:48:46;6.63;;;3.55;;
82920;SDS011;72696;52.372;9.722;2024-02-21T10:51:19;8.15;;;4.10;;
82920;SDS011;72696;52.372;9.722;2024-02-21T10:53:47;6.30;;;3.42;;
82920;SDS011;72696;52.372;9.722;2024-02-21T10:56:21;4.60;;;2.83;;
82920;SDS011;72696;52.372;9.722;2024-02-21T10:58:50;8.95;;;3.38;;
82920;SDS011;72696;52.372;9.722;2024-02-21T11:01:15;6.95;;;3.17;;
82920;SDS011;72696;52.372;9.722;2024-02-21T11:03:43;7.30;;;3.10;;
82920;SDS011;72696;52.372;9.722;2024-02-21T11:06:10;7.55;;;3.75;;
82920;SDS011;72696;52.372;9.722;2024-02-21T11:08:36;8.75;;;3.35;;
82920;SDS011;72696;52.372;9.722;2024-02-21T11:11:01;4.30;;;2.70;;
82920;SDS011;72696;52.372;9.722;2024-02-21T11:13:45;4.78;;;3.10;;
82920;SDS011;72696;52.372;9.722;2024-02-21T11:16:11;8.05;;;4.22;;
82920;SDS011;72696;52.372;9.722;2024-02-21T11:18:45;6.95;;;3.17;;
82920;SDS011;72696;52.372;9.722;2024-02-21T11:21:11;5.55;;;2.78;;
82920;SDS011;72696;52.372;9.722;2024-02-21T11:23:36;7.57;;;3.22;;
82920;SDS011;72696;52.372;9.722;2024-02-21T11:26:08;5.60;;;3.30;;
82920;SDS011;72696;52.372;9.722;2024-02-21T11:28:34;5.43;;;3.20;;
82920;SDS011;72696;52.372;9.722;2024-02-21T11:31:11;7.07;;;2.97;;
82920;SDS011;72696;52.372;9.722;2024-02-21T11:33:40;6.05;;;2.90;;
82920;SDS011;72696;52.372;9.722;2024-02-21T11:36:09;6.22;;;3.00;;
82920;SDS011;72696;52.372;9.722;2024-02-21T11:38:34;6.38;;;2.90;;
82920;SDS011;72696;52.372;9.722;2024-02-21T11:41:00;6.30;;;3.65;;
82920;SDS011;72696;52.372;9.722;2024-02-21T11:43:25;5.20;;;2.92;;
82920;SDS011;72696;52.372;9.722;2024-02-21T11:45:58;5.90;;;3.22;;
82920;SDS011;72696;52.372;9.722;2024-02-21T11:48:25;5.88;;;3.00;;
82920;SDS011;72696;52.372;9.722;2024-02-21T11:50:54;6.38;;;2.72;;
82920;SDS011;72696;52.372;9.722;2024-02-21T11:53:20;4.50;;;3.03;;
82920;SDS011;72696;52.372;9.722;2024-02-21T11:55:46;5.50;;;2.58;;
82920;SDS011;72696;52.372;9.722;2024-02-21T11:58:11;4.75;;;3.00;;
82920;SDS011;72696;52.372;9.722;2024-02-21T12:00:37;5.45;;;2.70;;
82920;SDS011;72696;52.372;9.722;2024-02-21T12:03:03;4.85;;;2.72;;
82920;SDS011;72696;52.372;9.722;2024-02-21T12:05:29;4.15;;;2.33;;
82920;SDS011;72696;52.372;9.722;2024-02-21T12:07:55;4.60;;;2.60;;
82920;SDS011;72696;52.372;9.722;2024-02-21T12:10:20;6.85;;;2.83;;
82920;SDS011;72696;52.372;9.722;2024-02-21T12:12:46;4.60;;;2.92;;
82920;SDS011;72696;52.372;9.722;2024-02-21T12:15:13;4.65;;;2.92;;
82920;SDS011;72696;52.372;9.722;2024-02-21T12:17:39;5.32;;;3.00;;
82920;SDS011;72696;52.372;9.722;2024-02-21T12:20:05;6.60;;;3.00;;
82920;SDS011;72696;52.372;9.722;2024-02-21T12:22:34;5.95;;;3.63;;
82920;SDS011;72696;52.372;9.722;2024-02-21T12:25:02;7.20;;;2.95;;
82920;SDS011;72696;52.372;9.722;2024-02-21T12:27:29;5.97;;;3.00;;
82920;SDS011;72696;52.372;9.722;2024-02-21T12:29:54;7.68;;;3.80;;
82920;SDS011;72696;52.372;9.722;2024-02-21T12:32:20;5.72;;;3.15;;
82920;SDS011;72696;52.372;9.722;2024-02-21T12:34:45;7.55;;;3.13;;
82920;SDS011;72696;52.372;9.722;2024-02-21T12:37:11;5.82;;;3.25;;
82920;SDS011;72696;52.372;9.722;2024-02-21T12:39:40;4.72;;;3.15;;
82920;SDS011;72696;52.372;9.722;2024-02-21T12:42:06;6.47;;;3.30;;
82920;SDS011;72696;52.372;9.722;2024-02-21T12:44:31;7.22;;;3.58;;
82920;SDS011;72696;52.372;9.722;2024-02-21T12:46:57;7.43;;;3.25;;
82920;SDS011;72696;52.372;9.722;2024-02-21T12:49:22;6.55;;;3.95;;
82920;SDS011;72696;52.372;9.722;2024-02-21T12:51:49;5.57;;;3.80;;
82920;SDS011;72696;52.372;9.722;2024-02-21T12:54:14;6.88;;;4.00;;
82920;SDS011;72696;52.372;9.722;2024-02-21T12:56:39;7.32;;;3.85;;
82920;SDS011;72696;52.372;9.722;2024-02-21T12:59:05;8.27;;;3.92;;
82920;SDS011;72696;52.372;9.722;2024-02-21T13:01:34;8.00;;;4.35;;
82920;SDS011;72696;52.372;9.722;2024-02-21T13:04:00;7.95;;;4.25;;
82920;SDS011;72696;52.372;9.722;2024-02-21T13:06:26;8.02;;;4.38;;
82920;SDS011;72696;52.372;9.722;2024-02-21T13:08:51;6.22;;;3.83;;
82920;SDS011;72696;52.372;9.722;2024-02-21T13:11:17;7.93;;;4.75;;
82920;SDS011;72696;52.372;9.722;2024-02-21T13:13:42;12.48;;;4.80;;
82920;SDS011;72696;52.372;9.722;2024-02-21T13:16:08;8.82;;;4.55;;
82920;SDS011;72696;52.372;9.722;2024-02-21T13:18:34;8.70;;;5.20;;
82920;SDS011;72696;52.372;9.722;2024-02-21T13:21:00;8.93;;;4.78;;
82920;SDS011;72696;52.372;9.722;2024-02-21T13:23:28;9.68;;;4.90;;
82920;SDS011;72696;52.372;9.722;2024-02-21T13:25:54;8.40;;;4.35;;
82920;SDS011;72696;52.372;9.722;2024-02-21T13:28:19;8.27;;;4.57;;
82920;SDS011;72696;52.372;9.722;2024-02-21T13:30:45;7.40;;;4.03;;
82920;SDS011;72696;52.372;9.722;2024-02-21T13:33:10;7.43;;;4.40;;
82920;SDS011;72696;52.372;9.722;2024-02-21T13:35:35;9.73;;;4.45;;
82920;SDS011;72696;52.372;9.722;2024-02-21T13:38:01;6.55;;;3.83;;
82920;SDS011;72696;52.372;9.722;2024-02-21T13:40:28;9.25;;;4.68;;
82920;SDS011;72696;52.372;9.722;2024-02-21T13:42:53;9.38;;;4.53;;
82920;SDS011;72696;52.372;9.722;2024-02-21T13:45:19;9.68;;;5.07;;
82920;SDS011;72696;52.372;9.722;2024-02-21T13:47:44;7.88;;;3.97;;
82920;SDS011;72696;52.372;9.722;2024-02-21T13:50:10;6.82;;;3.92;;
82920;SDS011;72696;52.372;9.722;2024-02-21T13:52:39;5.65;;;4.15;;
82920;SDS011;72696;52.372;9.722;2024-02-21T13:55:05;6.70;;;3.60;;
82920;SDS011;72696;52.372;9.722;2024-02-21T13:57:33;7.28;;;3.53;;
82920;SDS011;72696;52.372;9.722;2024-02-21T14:00:02;7.53;;;3.80;;
82920;SDS011;72696;52.372;9.722;2024-02-21T14:02:29;6.15;;;3.50;;
82920;SDS011;72696;52.372;9.722;2024-02-21T14:04:55;4.45;;;3.00;;
82920;SDS011;72696;52.372;9.722;2024-02-21T14:07:20;6.85;;;3.50;;
82920;SDS011;72696;52.372;9.722;2024-02-21T14:09:45;5.35;;;3.00;;
82920;SDS011;72696;52.372;9.722;2024-02-21T14:12:11;6.43;;;3.05;;
82920;SDS011;72696;52.372;9.722;2024-02-21T14:14:37;7.03;;;3.42;;
82920;SDS011;72696;52.372;9.722;2024-02-21T14:17:02;6.07;;;3.05;;
82920;SDS011;72696;52.372;9.722;2024-02-21T14:19:28;8.43;;;3.28;;
82920;SDS011;72696;52.372;9.722;2024-02-21T14:21:54;6.82;;;3.10;;
82920;SDS011;72696;52.372;9.722;2024-02-21T14:24:19;7.57;;;3.85;;
82920;SDS011;72696;52.372;9.722;2024-02-21T14:26:45;5.15;;;2.88;;
82920;SDS011;72696;52.372;9.722;2024-02-21T14:29:10;5.00;;;3.05;;